Terminal Aerodrome Forecast
Issued by NWS Binghamton, NY

Home | Current Version | Previous Version | Text Only | Print | Product List | Glossary On
Versions: 1 2 3 4 5 6 7 8 9 10 11 12 13 14 15
000
FTUS41 KBGM 302300
TAFAVP
TAF
KAVP 302332Z 0100/0124 VRB03KT P6SM BKN070
      TEMPO 0100/0102 -SHRA
     FM010500 10003KT P6SM SCT025 BKN070
      TEMPO 0105/0107 5SM BR BKN025
     FM010700 VRB03KT 3SM BR BKN015
     FM011400 10003KT P6SM BKN025
     FM011600 VRB03KT P6SM BKN045=

USA.gov is the U.S. government's official web portal to all federal, state and local government web resources and services.